createdAt,value
2023-03-05T00:02:10.324Z,100.00
2023-03-05T00:05:11.769Z,100.00
2023-03-05T00:07:40.691Z,100.00
2023-03-05T00:14:33.003Z,100.00
2023-03-05T00:16:46.905Z,100.00
2023-03-05T00:19:51.649Z,100.00
2023-03-05T00:22:42.533Z,100.00
2023-03-05T00:25:23.934Z,100.00
2023-03-05T00:27:51.373Z,100.00
2023-03-05T00:30:19.022Z,100.00
2023-03-05T00:32:59.856Z,100.00
2023-03-05T00:36:39.172Z,100.00
2023-03-05T00:43:14.343Z,100.00
2023-03-05T00:45:46.794Z,100.00
2023-03-05T00:51:02.931Z,100.00
2023-03-05T00:53:35.034Z,100.00
2023-03-05T00:56:03.598Z,100.00
2023-03-05T00:58:31.961Z,100.00
2023-03-05T01:01:01.920Z,100.00
2023-03-05T01:03:32.299Z,100.00
2023-03-05T01:06:04.488Z,100.00
2023-03-05T01:08:48.334Z,100.00
2023-03-05T01:11:16.797Z,100.00
2023-03-05T01:13:58.089Z,100.00
2023-03-05T01:16:44.497Z,100.00
2023-03-05T01:19:14.579Z,100.00
2023-03-05T01:21:52.309Z,100.00
2023-03-05T01:24:20.976Z,100.00
2023-03-05T01:27:03.923Z,100.00
2023-03-05T01:29:33.888Z,100.00
2023-03-05T01:32:05.373Z,100.00
2023-03-05T01:34:43.653Z,100.00
2023-03-05T01:37:14.439Z,100.00
2023-03-05T01:39:43.887Z,100.00
2023-03-05T01:42:28.963Z,100.00
2023-03-05T01:45:14.340Z,100.00
2023-03-05T01:47:47.899Z,100.00
2023-03-05T01:50:52.352Z,100.00
2023-03-05T01:53:21.750Z,100.00
2023-03-05T01:55:55.998Z,100.00
2023-03-05T01:58:36.237Z,100.00
2023-03-05T02:01:05.269Z,100.00
2023-03-05T02:03:35.033Z,100.00
2023-03-05T02:06:04.175Z,100.00
2023-03-05T02:08:32.673Z,100.00
2023-03-05T02:11:00.629Z,100.00
2023-03-05T02:13:33.636Z,100.00
2023-03-05T02:16:02.652Z,100.00
2023-03-05T02:18:32.197Z,100.00
2023-03-05T02:21:06.459Z,100.00
2023-03-05T02:23:37.634Z,100.00
2023-03-05T02:26:11.622Z,100.00
2023-03-05T02:28:52.644Z,100.00
2023-03-05T02:31:25.627Z,100.00
2023-03-05T02:33:59.495Z,100.00
2023-03-05T02:36:32.121Z,100.00
2023-03-05T02:39:01.984Z,100.00
2023-03-05T02:41:48.940Z,100.00
2023-03-05T02:44:17.258Z,100.00
2023-03-05T02:46:45.785Z,100.00
2023-03-05T02:49:24.912Z,100.00
2023-03-05T02:51:56.192Z,100.00
2023-03-05T02:54:23.491Z,100.00
2023-03-05T02:56:52.073Z,100.00
2023-03-05T02:59:20.559Z,100.00
2023-03-05T03:01:52.604Z,100.00
2023-03-05T03:04:21.905Z,100.00
2023-03-05T03:07:00.302Z,100.00
2023-03-05T03:09:29.260Z,100.00
2023-03-05T03:11:57.340Z,100.00
2023-03-05T03:14:26.547Z,100.00
2023-03-05T03:16:55.120Z,100.00
2023-03-05T03:19:23.804Z,100.00
2023-03-05T03:21:52.306Z,100.00
2023-03-05T03:24:23.243Z,100.00
2023-03-05T03:26:52.261Z,100.00
2023-03-05T03:29:23.460Z,100.00
2023-03-05T03:31:52.578Z,100.00
2023-03-05T03:34:27.608Z,100.00
2023-03-05T03:36:57.413Z,100.00
2023-03-05T03:39:26.026Z,100.00
2023-03-05T03:41:55.380Z,100.00
2023-03-05T03:44:34.000Z,100.00
2023-03-05T03:47:12.253Z,100.00
2023-03-05T03:49:41.817Z,100.00
2023-03-05T03:52:10.363Z,100.00
2023-03-05T03:54:38.990Z,100.00
2023-03-05T03:57:10.193Z,100.00
2023-03-05T03:59:39.754Z,100.00
2023-03-05T04:02:08.812Z,100.00
2023-03-05T04:07:20.415Z,100.00
2023-03-05T04:09:53.279Z,100.00
2023-03-05T04:12:27.281Z,100.00
2023-03-05T04:15:18.723Z,100.00
2023-03-05T04:17:52.029Z,100.00
2023-03-05T04:20:19.201Z,100.00
2023-03-05T04:23:00.808Z,100.00
2023-03-05T04:25:35.919Z,100.00
2023-03-05T04:28:24.365Z,100.00
2023-03-05T04:30:55.688Z,100.00
2023-03-05T04:33:22.689Z,100.00
2023-03-05T04:35:50.124Z,100.00
2023-03-05T04:38:17.278Z,100.00
2023-03-05T04:40:45.350Z,100.00
2023-03-05T04:43:16.391Z,100.00
2023-03-05T04:45:44.829Z,100.00
2023-03-05T04:48:14.964Z,100.00
2023-03-05T04:50:45.035Z,100.00
2023-03-05T04:53:12.222Z,100.00
2023-03-05T04:55:40.062Z,100.00
2023-03-05T04:58:07.096Z,100.00
2023-03-05T05:00:34.421Z,100.00
2023-03-05T05:03:01.360Z,100.00
2023-03-05T05:05:29.055Z,100.00
2023-03-05T05:08:02.206Z,100.00
2023-03-05T05:10:31.774Z,100.00
2023-03-05T05:13:00.899Z,100.00
2023-03-05T05:15:28.421Z,100.00
2023-03-05T05:17:55.490Z,100.00
2023-03-05T05:20:23.471Z,100.00
2023-03-05T05:22:51.025Z,100.00
2023-03-05T05:25:17.954Z,100.00
2023-03-05T05:27:55.158Z,100.00
2023-03-05T05:30:35.548Z,100.00
2023-03-05T05:33:06.691Z,100.00
2023-03-05T05:42:46.350Z,100.00
2023-03-05T05:45:53.302Z,100.00
2023-03-05T05:46:14.187Z,100.00
2023-03-05T05:48:53.239Z,100.00
2023-03-05T05:55:29.544Z,100.00
2023-03-05T05:58:00.072Z,100.00
2023-03-05T06:00:31.060Z,100.00
2023-03-05T06:02:59.468Z,100.00
2023-03-05T06:05:49.170Z,100.00
2023-03-05T06:11:27.496Z,100.00
2023-03-05T06:14:02.280Z,100.00
2023-03-05T06:16:43.400Z,100.00
2023-03-05T06:23:09.506Z,100.00
2023-03-05T06:25:41.458Z,100.00
2023-03-05T06:28:12.168Z,100.00
2023-03-05T06:30:52.181Z,100.00
2023-03-05T06:38:08.079Z,100.00
2023-03-05T06:41:09.592Z,100.00
2023-03-05T06:41:36.527Z,100.00
2023-03-05T06:50:31.994Z,100.00
2023-03-05T06:56:35.778Z,96.84
2023-03-05T06:59:13.556Z,97.00
2023-03-05T07:01:48.780Z,92.97
2023-03-05T07:05:01.184Z,93.61
2023-03-05T07:07:43.543Z,92.82
2023-03-05T07:10:11.490Z,88.54
2023-03-05T07:12:50.049Z,87.88
2023-03-05T07:18:19.869Z,85.57
2023-03-05T07:20:53.983Z,84.93
2023-03-05T07:23:28.742Z,85.78
2023-03-05T07:25:55.950Z,83.01
2023-03-05T07:28:28.192Z,84.46
2023-03-05T07:31:07.340Z,81.98
2023-03-05T07:33:37.912Z,84.05
2023-03-05T07:36:17.797Z,79.97
2023-03-05T07:38:45.586Z,79.24
2023-03-05T07:41:47.051Z,79.25
2023-03-05T07:44:20.226Z,76.64
2023-03-05T07:47:14.715Z,78.07
2023-03-05T07:50:08.363Z,74.98
2023-03-05T07:52:35.488Z,73.01
2023-03-05T07:55:02.909Z,71.91
2023-03-05T08:00:48.738Z,70.92
2023-03-05T08:03:20.333Z,69.03
2023-03-05T08:06:15.404Z,66.84
2023-03-05T08:12:15.597Z,65.25
2023-03-05T08:14:42.498Z,64.39
2023-03-05T08:17:27.423Z,64.04
2023-03-05T08:20:07.860Z,64.03
2023-03-05T08:23:08.539Z,64.14
2023-03-05T08:25:36.996Z,63.28
2023-03-05T08:28:21.900Z,61.86
2023-03-05T08:43:36.826Z,62.25
2023-03-05T08:47:54.054Z,63.68
2023-03-05T08:50:27.125Z,62.20
2023-03-05T08:52:53.866Z,63.06
2023-03-05T08:55:20.743Z,61.60
2023-03-05T08:57:54.937Z,60.41
2023-03-05T09:00:22.505Z,60.20
2023-03-05T09:07:04.817Z,59.88
2023-03-05T09:09:33.038Z,59.08
2023-03-05T09:12:01.185Z,58.83
2023-03-05T09:16:07.703Z,58.88
2023-03-05T09:17:23.004Z,57.35
2023-03-05T09:19:50.530Z,58.50
2023-03-05T09:22:17.413Z,57.44
2023-03-05T09:24:47.960Z,57.22
2023-03-05T09:27:14.898Z,58.13
2023-03-05T09:29:43.157Z,57.39
2023-03-05T09:32:10.742Z,54.51
2023-03-05T09:34:38.317Z,54.70
2023-03-05T09:37:09.624Z,55.03
2023-03-05T09:39:39.429Z,54.25
2023-03-05T09:42:30.285Z,55.02
2023-03-05T09:45:06.078Z,52.87
2023-03-05T09:48:13.139Z,53.76
2023-03-05T09:50:48.350Z,52.54
2023-03-05T09:53:45.329Z,52.44
2023-03-05T09:56:26.234Z,52.43
2023-03-05T09:58:58.679Z,54.10
2023-03-05T10:01:42.216Z,52.99
2023-03-05T10:04:25.902Z,52.41
2023-03-05T10:07:08.899Z,51.54
2023-03-05T10:09:48.931Z,50.99
2023-03-05T10:12:24.844Z,50.64
2023-03-05T10:14:52.962Z,51.88
2023-03-05T10:17:55.103Z,50.90
2023-03-05T10:20:47.408Z,50.24
2023-03-05T10:23:27.712Z,50.22
2023-03-05T10:25:59.717Z,50.25
2023-03-05T10:28:57.829Z,49.83
2023-03-05T10:31:42.073Z,51.27
2023-03-05T10:34:35.205Z,50.85
2023-03-05T10:37:36.457Z,51.56
2023-03-05T10:40:14.119Z,49.95
2023-03-05T10:43:07.546Z,49.96
2023-03-05T10:45:40.669Z,50.11
2023-03-05T10:48:25.346Z,49.74
2023-03-05T10:51:19.077Z,50.56
2023-03-05T10:54:10.761Z,49.33
2023-03-05T10:56:45.581Z,49.13
2023-03-05T10:59:12.969Z,49.39
2023-03-05T11:01:40.052Z,49.30
2023-03-05T11:04:25.246Z,50.51
2023-03-05T11:06:52.452Z,49.30
2023-03-05T11:09:33.064Z,50.18
2023-03-05T11:12:11.792Z,47.35
2023-03-05T11:14:42.467Z,50.96
2023-03-05T11:17:30.290Z,49.68
2023-03-05T11:20:38.593Z,49.72
2023-03-05T11:23:15.540Z,49.16
2023-03-05T11:26:19.840Z,49.40
2023-03-05T11:28:56.442Z,49.68
2023-03-05T11:31:28.631Z,50.89
2023-03-05T11:34:04.484Z,49.10
2023-03-05T11:36:40.345Z,52.05
2023-03-05T11:39:10.228Z,48.81
2023-03-05T11:41:53.022Z,48.29
2023-03-05T11:44:35.841Z,48.15
2023-03-05T11:47:24.282Z,47.38
2023-03-05T11:49:58.105Z,50.54
2023-03-05T11:52:28.328Z,47.38
2023-03-05T11:55:17.888Z,45.37
2023-03-05T11:57:53.966Z,47.44
2023-03-05T12:00:30.187Z,47.84
2023-03-05T12:03:04.877Z,48.05
2023-03-05T12:05:43.392Z,45.79
2023-03-05T12:09:05.399Z,45.90
2023-03-05T12:11:27.657Z,45.63
2023-03-05T12:14:23.735Z,45.62
2023-03-05T12:16:58.859Z,47.00
2023-03-05T12:19:44.124Z,46.70
2023-03-05T12:26:06.061Z,46.28
2023-03-05T12:28:35.889Z,46.99
2023-03-05T12:31:32.485Z,45.84
2023-03-05T12:34:00.042Z,45.44
2023-03-05T12:36:34.874Z,46.07
2023-03-05T12:40:11.597Z,45.54
2023-03-05T12:42:38.227Z,46.25
2023-03-05T12:45:54.320Z,44.63
2023-03-05T12:48:30.667Z,46.20
2023-03-05T12:51:06.985Z,45.98
2023-03-05T12:53:33.996Z,45.82
2023-03-05T12:56:41.457Z,45.62
2023-03-05T12:59:37.343Z,44.87
2023-03-05T13:02:19.635Z,45.07
2023-03-05T13:04:47.360Z,46.56
2023-03-05T13:08:00.383Z,46.18
2023-03-05T13:10:29.397Z,45.67
2023-03-05T13:12:58.589Z,45.20
2023-03-05T13:15:26.462Z,44.77
2023-03-05T13:18:10.066Z,44.87
2023-03-05T13:24:06.262Z,44.90
2023-03-05T13:26:42.365Z,45.98
2023-03-05T13:29:13.478Z,46.40
2023-03-05T13:31:46.902Z,46.51
2023-03-05T13:34:46.097Z,47.51
2023-03-05T13:37:20.640Z,47.89
2023-03-05T13:39:55.842Z,46.63
2023-03-05T13:42:30.114Z,45.92
2023-03-05T13:45:18.344Z,46.80
2023-03-05T13:47:58.418Z,45.63
2023-03-05T13:50:27.447Z,44.93
2023-03-05T13:52:56.222Z,44.34
2023-03-05T13:55:24.947Z,46.39
2023-03-05T13:57:55.738Z,45.52
2023-03-05T14:00:31.570Z,46.33
2023-03-05T14:03:55.195Z,46.04
2023-03-05T14:06:25.047Z,46.32
2023-03-05T14:08:59.370Z,45.94
2023-03-05T14:11:27.028Z,46.65
2023-03-05T14:14:22.825Z,46.45
2023-03-05T14:16:50.582Z,48.00
2023-03-05T14:19:47.963Z,46.39
2023-03-05T14:22:35.991Z,45.89
2023-03-05T14:25:04.165Z,45.92
2023-03-05T14:27:41.642Z,47.11
2023-03-05T14:30:28.133Z,46.26
2023-03-05T14:32:56.159Z,47.17
2023-03-05T14:35:27.186Z,46.75
2023-03-05T14:38:00.477Z,47.17
2023-03-05T14:40:35.878Z,48.13
2023-03-05T14:43:07.442Z,46.79
2023-03-05T14:45:47.541Z,47.33
2023-03-05T14:48:20.868Z,47.30
2023-03-05T14:50:52.246Z,47.06
2023-03-05T14:53:32.022Z,46.86
2023-03-05T14:59:06.499Z,46.11
2023-03-05T15:01:37.842Z,44.87
2023-03-05T15:04:17.779Z,43.20
2023-03-05T15:06:50.742Z,43.62
2023-03-05T15:09:24.019Z,42.85
2023-03-05T15:11:51.546Z,42.96
2023-03-05T15:14:22.723Z,43.20
2023-03-05T15:16:50.473Z,43.62
2023-03-05T15:19:27.035Z,45.17
2023-03-05T15:21:55.639Z,45.88
2023-03-05T15:24:22.621Z,47.12
2023-03-05T15:26:53.036Z,45.81
2023-03-05T15:29:20.236Z,47.36
2023-03-05T15:31:47.604Z,47.80
2023-03-05T15:34:15.066Z,49.28
2023-03-05T15:36:42.946Z,49.16
2023-03-05T15:39:17.405Z,49.45
2023-03-05T15:41:48.208Z,48.87
2023-03-05T15:44:15.512Z,49.40
2023-03-05T15:46:45.679Z,50.12
2023-03-05T15:49:13.896Z,49.12
2023-03-05T15:51:41.063Z,50.95
2023-03-05T15:54:08.523Z,50.51
2023-03-05T15:56:35.518Z,50.17
2023-03-05T15:59:45.209Z,50.13
2023-03-05T16:02:15.590Z,51.07
2023-03-05T16:04:47.817Z,50.77
2023-03-05T16:07:20.315Z,51.82
2023-03-05T16:09:51.878Z,52.84
2023-03-05T16:12:24.012Z,54.94
2023-03-05T16:14:52.104Z,55.15
2023-03-05T16:17:22.428Z,56.52
2023-03-05T16:19:54.187Z,57.38
2023-03-05T16:30:35.920Z,64.10
2023-03-05T16:36:36.892Z,65.93
2023-03-05T16:39:05.334Z,67.29
2023-03-05T16:41:43.487Z,67.41
2023-03-05T16:53:57.946Z,72.93
2023-03-05T16:56:42.221Z,73.37
2023-03-05T17:02:51.560Z,76.43
2023-03-05T17:13:18.677Z,78.03
2023-03-05T17:16:35.649Z,79.44
2023-03-05T17:19:21.990Z,77.91
2023-03-05T17:32:24.244Z,82.63
2023-03-05T17:35:47.485Z,80.88
2023-03-05T17:38:16.753Z,79.85
2023-03-05T17:41:16.324Z,82.75
2023-03-05T17:43:43.928Z,83.58
2023-03-05T17:46:18.838Z,86.02
2023-03-05T17:48:46.357Z,85.65
2023-03-05T17:54:09.053Z,86.84
2023-03-05T17:56:39.998Z,85.79
2023-03-05T17:59:07.584Z,86.68
2023-03-05T18:01:35.121Z,86.57
2023-03-05T18:04:44.613Z,86.84
2023-03-05T18:07:11.916Z,86.53
2023-03-05T18:10:14.645Z,86.37
2023-03-05T18:12:48.532Z,86.24
2023-03-05T18:15:38.108Z,86.28
2023-03-05T18:18:11.097Z,87.97
2023-03-05T18:20:42.535Z,88.35
2023-03-05T18:23:16.101Z,89.50
2023-03-05T18:25:44.947Z,88.50
2023-03-05T18:28:14.188Z,86.57
2023-03-05T18:30:43.732Z,87.19
2023-03-05T18:33:26.156Z,88.14
2023-03-05T18:35:54.922Z,88.90
2023-03-05T18:39:01.928Z,88.53
2023-03-05T18:42:06.465Z,88.03
2023-03-05T18:44:33.368Z,86.88
2023-03-05T18:47:04.617Z,83.82
2023-03-05T18:49:33.433Z,85.26
2023-03-05T18:52:16.427Z,84.79
2023-03-05T18:54:44.690Z,85.14
2023-03-05T19:00:46.357Z,85.18
2023-03-05T19:03:14.659Z,88.77
2023-03-05T19:05:45.867Z,88.53
2023-03-05T19:08:14.168Z,85.97
2023-03-05T19:10:45.601Z,82.51
2023-03-05T19:13:45.277Z,82.28
2023-03-05T19:16:23.066Z,79.56
2023-03-05T19:19:26.116Z,76.63
2023-03-05T19:22:01.695Z,75.82
2023-03-05T19:24:34.783Z,72.79
2023-03-05T19:27:50.070Z,73.17
2023-03-05T19:30:19.253Z,71.47
2023-03-05T19:33:09.632Z,72.44
2023-03-05T19:35:43.113Z,72.17
2023-03-05T19:38:56.402Z,69.23
2023-03-05T19:41:29.942Z,71.89
2023-03-05T19:44:11.361Z,69.47
2023-03-05T19:46:51.353Z,68.42
2023-03-05T19:49:20.391Z,69.93
2023-03-05T19:52:09.798Z,69.56
2023-03-05T19:54:43.532Z,70.87
2023-03-05T19:57:12.668Z,71.28
2023-03-05T20:02:25.645Z,70.23
2023-03-05T20:05:02.769Z,69.89
2023-03-05T20:07:32.304Z,71.55
2023-03-05T20:10:02.195Z,70.35
2023-03-05T20:12:49.427Z,69.59
2023-03-05T20:15:32.015Z,70.34
2023-03-05T20:18:04.509Z,70.43
2023-03-05T20:20:38.214Z,71.48
2023-03-05T20:23:12.577Z,70.66
2023-03-05T20:26:03.035Z,70.55
2023-03-05T20:28:45.458Z,72.17
2023-03-05T20:31:14.234Z,71.16
2023-03-05T20:33:42.644Z,70.81
2023-03-05T20:36:11.908Z,71.21
2023-03-05T20:38:58.668Z,70.06
2023-03-05T20:41:29.116Z,69.62
2023-03-05T20:43:56.327Z,68.99
2023-03-05T20:47:02.928Z,69.35
2023-03-05T20:49:32.262Z,70.11
2023-03-05T20:52:01.179Z,72.07
2023-03-05T20:54:40.346Z,73.55
2023-03-05T20:57:37.301Z,74.35
2023-03-05T21:00:12.355Z,75.51
2023-03-05T21:05:37.739Z,77.64
2023-03-05T21:08:56.331Z,78.92
2023-03-05T21:11:32.495Z,80.44
2023-03-05T21:14:01.215Z,80.79
2023-03-05T21:16:34.373Z,82.12
2023-03-05T21:19:06.651Z,80.19
2023-03-05T21:21:37.642Z,83.05
2023-03-05T21:24:09.627Z,84.25
2023-03-05T21:26:39.417Z,83.57
2023-03-05T21:29:06.473Z,84.77
2023-03-05T21:31:39.371Z,85.52
2023-03-05T21:34:06.727Z,85.56
2023-03-05T21:36:52.803Z,84.14
2023-03-05T21:39:19.735Z,84.56
2023-03-05T21:42:01.469Z,86.09
2023-03-05T21:44:46.513Z,84.29
2023-03-05T21:47:23.213Z,86.91
2023-03-05T21:50:31.802Z,86.96
2023-03-05T21:53:03.275Z,87.72
2023-03-05T21:56:19.264Z,87.63
2023-03-05T21:58:57.943Z,86.74
2023-03-05T22:01:27.376Z,87.22
2023-03-05T22:03:58.095Z,88.42
2023-03-05T22:06:38.073Z,89.99
2023-03-05T22:12:17.426Z,91.42
2023-03-05T22:14:44.259Z,91.40
2023-03-05T22:17:12.145Z,90.75
2023-03-05T22:19:51.410Z,90.72
2023-03-05T22:22:29.933Z,91.47
2023-03-05T22:25:03.642Z,92.02
2023-03-05T22:27:38.971Z,92.07
2023-03-05T22:30:09.985Z,90.77
2023-03-05T22:32:41.896Z,93.13
2023-03-05T22:35:19.802Z,92.98
2023-03-05T22:37:56.795Z,92.80
2023-03-05T22:40:28.779Z,92.79
2023-03-05T22:43:00.823Z,92.70
2023-03-05T22:45:49.965Z,92.90
2023-03-05T22:48:22.847Z,90.85
2023-03-05T22:50:56.954Z,93.40
2023-03-05T22:54:57.387Z,92.89
2023-03-05T22:56:30.495Z,91.09
2023-03-05T22:59:04.343Z,93.49
2023-03-05T23:01:38.321Z,93.14
2023-03-05T23:04:53.532Z,91.50
2023-03-05T23:07:26.508Z,93.83
2023-03-05T23:10:32.569Z,96.54
2023-03-05T23:13:21.922Z,93.91
2023-03-05T23:15:50.059Z,93.76
2023-03-05T23:18:38.899Z,93.93
2023-03-05T23:21:07.072Z,94.81
2023-03-05T23:23:38.283Z,97.92
2023-03-05T23:26:19.405Z,96.65
2023-03-05T23:29:35.257Z,96.79
2023-03-05T23:31:46.773Z,98.77
2023-03-05T23:34:19.479Z,97.56
2023-03-05T23:37:07.478Z,97.37
2023-03-05T23:39:39.515Z,98.04
2023-03-05T23:42:21.565Z,99.39
2023-03-05T23:44:49.300Z,96.02
2023-03-05T23:47:20.284Z,98.66
2023-03-05T23:49:51.334Z,99.71
2023-03-05T23:55:50.283Z,97.95
